createdAt,value
2023-02-28T00:00:58.289Z,8.57
2023-02-28T00:04:02.909Z,7.57
2023-02-28T00:07:06.969Z,10.45
2023-02-28T00:10:13.684Z,8.90
2023-02-28T00:13:17.635Z,9.50
2023-02-28T00:16:23.198Z,9.57
2023-02-28T00:19:27.061Z,7.97
2023-02-28T00:22:31.915Z,10.85
2023-02-28T00:25:35.887Z,10.27
2023-02-28T00:28:39.807Z,7.85
2023-02-28T00:31:44.098Z,10.20
2023-02-28T00:34:48.050Z,8.85
2023-02-28T00:37:52.240Z,9.75
2023-02-28T00:40:56.369Z,9.35
2023-02-28T00:44:00.494Z,8.05
2023-02-28T00:47:05.036Z,8.25
2023-02-28T00:50:10.042Z,11.40
2023-02-28T00:53:14.420Z,14.20
2023-02-28T00:56:18.601Z,9.35
2023-02-28T00:59:22.695Z,7.50
2023-02-28T01:02:26.943Z,8.02
2023-02-28T01:05:31.094Z,9.85
2023-02-28T01:08:35.082Z,10.23
2023-02-28T01:11:40.070Z,8.82
2023-02-28T01:14:43.858Z,9.50
2023-02-28T01:17:48.174Z,7.47
2023-02-28T01:20:53.263Z,9.15
2023-02-28T01:23:58.764Z,11.30
2023-02-28T01:27:02.568Z,9.60
2023-02-28T01:30:10.605Z,9.60
2023-02-28T01:33:14.708Z,10.35
2023-02-28T01:36:22.276Z,8.35
2023-02-28T01:39:27.226Z,10.25
2023-02-28T01:42:31.176Z,9.02
2023-02-28T01:45:36.788Z,13.23
2023-02-28T01:48:52.847Z,9.23
2023-02-28T01:51:57.862Z,8.05
2023-02-28T01:55:05.151Z,8.90
2023-02-28T01:58:10.529Z,8.52
2023-02-28T02:01:22.360Z,8.40
2023-02-28T02:04:33.044Z,8.20
2023-02-28T02:07:40.399Z,8.88
2023-02-28T02:10:52.131Z,7.30
2023-02-28T02:14:08.055Z,8.80
2023-02-28T02:17:23.724Z,8.85
2023-02-28T02:20:35.862Z,9.93
2023-02-28T02:24:05.194Z,7.55
2023-02-28T02:27:36.676Z,10.57
2023-02-28T02:31:07.398Z,9.52
2023-02-28T02:34:28.041Z,7.93
2023-02-28T02:37:43.456Z,10.20
2023-02-28T02:41:08.366Z,8.48
2023-02-28T02:44:41.586Z,10.55
2023-02-28T02:47:46.312Z,7.90
2023-02-28T02:50:57.188Z,11.45
2023-02-28T02:54:08.949Z,8.88
2023-02-28T02:57:28.252Z,7.53
2023-02-28T03:00:38.727Z,8.63
2023-02-28T03:03:44.193Z,10.90
2023-02-28T03:06:48.765Z,10.35
2023-02-28T03:09:54.919Z,10.15
2023-02-28T03:13:18.024Z,10.68
2023-02-28T03:16:30.280Z,10.10
2023-02-28T03:20:17.317Z,8.40
2023-02-28T03:23:29.247Z,9.07
2023-02-28T03:26:37.171Z,9.57
2023-02-28T03:29:48.586Z,9.57
2023-02-28T03:32:59.305Z,9.93
2023-02-28T03:36:09.119Z,7.90
2023-02-28T03:39:18.435Z,9.98
2023-02-28T03:42:26.909Z,12.55
2023-02-28T03:45:34.728Z,10.90
2023-02-28T03:48:57.921Z,10.10
2023-02-28T03:52:04.983Z,10.52
2023-02-28T03:55:13.055Z,10.27
2023-02-28T03:58:27.354Z,9.52
2023-02-28T04:01:36.059Z,8.15
2023-02-28T04:04:49.411Z,9.15
2023-02-28T04:07:53.841Z,10.02
2023-02-28T04:11:05.258Z,10.63
2023-02-28T04:14:10.480Z,10.98
2023-02-28T04:17:14.537Z,9.30
2023-02-28T04:20:18.799Z,9.25
2023-02-28T04:23:22.828Z,11.02
2023-02-28T04:26:33.205Z,12.77
2023-02-28T04:29:37.378Z,10.40
2023-02-28T04:32:41.247Z,10.23
2023-02-28T04:35:45.339Z,10.77
2023-02-28T04:38:49.539Z,8.90
2023-02-28T04:41:53.690Z,12.57
2023-02-28T04:44:57.652Z,11.80
2023-02-28T04:48:01.391Z,10.32
2023-02-28T04:51:11.787Z,9.25
2023-02-28T04:54:17.033Z,9.00
2023-02-28T04:57:21.263Z,9.35
2023-02-28T05:00:26.087Z,9.18
2023-02-28T05:03:30.151Z,10.52
2023-02-28T05:06:34.684Z,11.15
2023-02-28T05:09:38.711Z,10.88
2023-02-28T05:12:42.882Z,9.02
2023-02-28T05:15:46.647Z,11.27
2023-02-28T05:18:52.710Z,7.95
2023-02-28T05:21:56.953Z,9.65
2023-02-28T05:25:00.851Z,11.30
2023-02-28T05:28:05.231Z,11.52
2023-02-28T05:31:12.336Z,9.25
2023-02-28T05:34:17.067Z,11.00
2023-02-28T05:37:22.784Z,13.90
2023-02-28T05:40:26.960Z,9.30
2023-02-28T05:43:31.052Z,13.00
2023-02-28T05:46:35.415Z,10.07
2023-02-28T05:49:39.672Z,10.25
2023-02-28T05:52:43.685Z,10.45
2023-02-28T05:55:47.994Z,8.02
2023-02-28T05:58:55.007Z,11.38
2023-02-28T06:01:58.660Z,8.40
2023-02-28T06:05:02.804Z,11.30
2023-02-28T06:08:08.318Z,12.60
2023-02-28T06:11:13.178Z,15.30
2023-02-28T06:14:19.459Z,7.82
2023-02-28T06:17:23.494Z,14.75
2023-02-28T06:20:31.698Z,10.88
2023-02-28T06:23:35.517Z,12.45
2023-02-28T06:26:39.604Z,12.65
2023-02-28T06:29:43.657Z,16.48
2023-02-28T06:32:50.178Z,10.63
2023-02-28T06:35:54.431Z,14.77
2023-02-28T06:38:58.708Z,14.32
2023-02-28T06:42:02.662Z,14.30
2023-02-28T06:45:10.199Z,12.50
2023-02-28T06:48:14.806Z,12.32
2023-02-28T06:51:25.275Z,10.80
2023-02-28T06:54:29.389Z,10.23
2023-02-28T06:57:35.691Z,15.75
2023-02-28T07:00:39.655Z,12.35
2023-02-28T07:03:43.849Z,13.88
2023-02-28T07:06:48.277Z,13.93
2023-02-28T07:09:52.805Z,11.82
2023-02-28T07:12:56.930Z,14.80
2023-02-28T07:16:06.306Z,13.85
2023-02-28T07:19:10.561Z,12.13
2023-02-28T07:22:15.921Z,12.27
2023-02-28T07:25:20.138Z,14.68
2023-02-28T07:28:24.465Z,15.45
2023-02-28T07:31:28.679Z,18.20
2023-02-28T07:34:33.049Z,14.52
2023-02-28T07:37:40.176Z,12.48
2023-02-28T07:40:44.312Z,16.15
2023-02-28T07:43:48.102Z,11.48
2023-02-28T07:46:53.731Z,11.98
2023-02-28T07:49:58.721Z,12.93
2023-02-28T07:53:02.958Z,15.27
2023-02-28T07:56:07.919Z,15.95
2023-02-28T07:59:12.149Z,12.23
2023-02-28T08:02:17.185Z,15.63
2023-02-28T08:05:22.307Z,14.73
2023-02-28T08:08:30.236Z,13.05
2023-02-28T08:11:34.466Z,11.95
2023-02-28T08:14:39.190Z,12.80
2023-02-28T08:17:43.127Z,12.32
2023-02-28T08:20:47.537Z,13.40
2023-02-28T08:23:52.617Z,13.52
2023-02-28T08:26:57.045Z,12.70
2023-02-28T08:30:01.354Z,8.90
2023-02-28T08:33:05.731Z,12.10
2023-02-28T08:36:12.817Z,12.18
2023-02-28T08:39:17.272Z,10.63
2023-02-28T08:42:21.317Z,11.45
2023-02-28T08:45:25.804Z,12.50
2023-02-28T08:48:32.794Z,8.45
2023-02-28T08:51:37.223Z,8.98
2023-02-28T08:54:41.427Z,8.02
2023-02-28T08:57:45.358Z,10.32
2023-02-28T09:00:49.604Z,11.38
2023-02-28T09:07:03.775Z,12.85
2023-02-28T09:10:08.636Z,10.48
2023-02-28T09:13:12.508Z,11.68
2023-02-28T09:16:17.717Z,12.23
2023-02-28T09:19:21.866Z,11.30
2023-02-28T09:22:26.485Z,9.70
2023-02-28T09:25:30.843Z,11.00
2023-02-28T09:28:35.291Z,10.63
2023-02-28T09:31:39.653Z,10.00
2023-02-28T09:34:43.934Z,7.90
2023-02-28T09:37:49.797Z,9.00
2023-02-28T09:40:57.661Z,10.18
2023-02-28T09:44:04.231Z,14.05
2023-02-28T09:47:35.312Z,10.00
2023-02-28T09:50:42.941Z,11.73
2023-02-28T09:53:50.472Z,9.25
2023-02-28T09:57:03.628Z,8.82
2023-02-28T10:00:23.631Z,8.93
2023-02-28T10:03:35.800Z,8.90
2023-02-28T10:06:47.822Z,8.80
2023-02-28T10:09:56.227Z,10.75
2023-02-28T10:13:05.251Z,12.20
2023-02-28T10:16:17.562Z,12.75
2023-02-28T10:19:54.233Z,9.65
2023-02-28T10:23:18.027Z,9.60
2023-02-28T10:26:22.461Z,12.93
2023-02-28T10:29:26.919Z,12.93
2023-02-28T10:32:34.661Z,12.73
2023-02-28T10:35:38.771Z,10.60
2023-02-28T10:38:43.835Z,9.57
2023-02-28T10:41:48.048Z,10.57
2023-02-28T10:45:11.704Z,11.38
2023-02-28T10:48:15.521Z,15.23
2023-02-28T10:51:20.297Z,10.20
2023-02-28T10:54:30.881Z,15.63
2023-02-28T10:57:35.029Z,8.60
2023-02-28T11:00:38.814Z,11.15
2023-02-28T11:03:43.313Z,11.07
2023-02-28T11:06:47.665Z,11.55
2023-02-28T11:09:57.136Z,10.45
2023-02-28T11:13:02.052Z,12.60
2023-02-28T11:16:09.985Z,13.23
2023-02-28T11:19:27.698Z,13.05
2023-02-28T11:22:38.913Z,10.48
2023-02-28T11:25:50.160Z,12.45
2023-02-28T11:29:10.025Z,10.00
2023-02-28T11:32:22.375Z,12.52
2023-02-28T11:35:39.950Z,12.73
2023-02-28T11:38:44.514Z,11.15
2023-02-28T11:41:59.513Z,11.18
2023-02-28T11:45:23.820Z,14.30
2023-02-28T11:49:00.732Z,11.95
2023-02-28T11:52:17.560Z,9.82
2023-02-28T11:55:42.972Z,12.05
2023-02-28T11:58:54.750Z,12.75
2023-02-28T12:02:21.568Z,11.02
2023-02-28T12:06:03.687Z,9.85
2023-02-28T12:09:35.422Z,10.57
2023-02-28T12:12:57.676Z,14.80
2023-02-28T12:16:26.773Z,12.05
2023-02-28T12:20:03.802Z,12.90
2023-02-28T12:23:23.164Z,11.48
2023-02-28T12:26:43.414Z,12.70
2023-02-28T12:30:03.361Z,12.63
2023-02-28T12:33:10.960Z,12.25
2023-02-28T12:36:20.062Z,11.73
2023-02-28T12:39:48.351Z,12.90
2023-02-28T12:42:59.245Z,12.32
2023-02-28T12:46:26.578Z,13.10
2023-02-28T12:49:39.270Z,12.73
2023-02-28T12:53:12.770Z,14.50
2023-02-28T12:56:35.645Z,13.18
2023-02-28T12:59:45.250Z,13.35
2023-02-28T13:03:21.701Z,14.80
2023-02-28T13:06:44.315Z,14.88
2023-02-28T13:09:56.143Z,14.02
2023-02-28T13:13:04.846Z,12.15
2023-02-28T13:16:10.962Z,13.63
2023-02-28T13:19:19.967Z,12.82
2023-02-28T13:22:28.008Z,10.07
2023-02-28T13:25:35.192Z,19.67
2023-02-28T13:29:00.644Z,14.30
2023-02-28T13:32:07.725Z,13.45
2023-02-28T13:35:12.175Z,12.63
2023-02-28T13:38:23.341Z,13.57
2023-02-28T13:41:31.159Z,12.30
2023-02-28T13:45:15.342Z,12.88
2023-02-28T13:48:23.683Z,13.15
2023-02-28T13:51:44.968Z,14.25
2023-02-28T13:54:56.903Z,14.70
2023-02-28T13:58:10.246Z,13.05
2023-02-28T14:01:33.278Z,14.57
2023-02-28T14:04:43.378Z,14.80
2023-02-28T14:07:51.378Z,14.02
2023-02-28T14:11:08.054Z,12.20
2023-02-28T14:14:37.522Z,12.35
2023-02-28T14:17:41.754Z,14.52
2023-02-28T14:20:48.565Z,11.90
2023-02-28T14:24:29.673Z,12.70
2023-02-28T14:27:52.696Z,13.00
2023-02-28T14:30:59.381Z,13.13
2023-02-28T14:34:18.238Z,12.65
2023-02-28T14:37:29.484Z,11.05
2023-02-28T14:40:36.859Z,13.73
2023-02-28T14:43:50.301Z,11.20
2023-02-28T14:47:00.160Z,13.93
2023-02-28T14:50:05.569Z,12.80
2023-02-28T14:53:19.100Z,14.88
2023-02-28T14:59:33.201Z,13.07
2023-02-28T15:02:38.750Z,14.38
2023-02-28T15:05:42.541Z,12.48
2023-02-28T15:08:46.797Z,15.65
2023-02-28T15:11:51.378Z,18.52
2023-02-28T15:14:55.587Z,16.15
2023-02-28T15:18:00.973Z,14.60
2023-02-28T15:21:08.849Z,14.25
2023-02-28T15:24:25.618Z,14.70
2023-02-28T15:27:33.586Z,14.00
2023-02-28T15:30:37.780Z,13.40
2023-02-28T15:33:54.431Z,13.95
2023-02-28T15:36:58.188Z,15.75
2023-02-28T15:40:14.121Z,15.23
2023-02-28T15:43:40.921Z,14.27
2023-02-28T15:46:56.086Z,13.90
2023-02-28T15:50:11.502Z,12.68
2023-02-28T15:53:19.866Z,14.88
2023-02-28T15:56:26.885Z,14.88
2023-02-28T15:59:32.286Z,16.08
2023-02-28T16:02:38.332Z,16.45
2023-02-28T16:05:43.010Z,16.20
2023-02-28T16:08:49.650Z,13.75
2023-02-28T16:11:56.868Z,15.18
2023-02-28T16:15:03.878Z,15.15
2023-02-28T16:18:11.205Z,19.55
2023-02-28T16:21:15.093Z,13.38
2023-02-28T16:24:19.250Z,17.98
2023-02-28T16:27:33.917Z,16.77
2023-02-28T16:30:38.083Z,14.50
2023-02-28T16:33:42.096Z,17.38
2023-02-28T16:36:50.029Z,16.77
2023-02-28T16:39:54.262Z,15.50
2023-02-28T16:43:00.896Z,18.80
2023-02-28T16:46:06.518Z,15.10
2023-02-28T16:49:14.021Z,17.33
2023-02-28T16:52:18.100Z,15.70
2023-02-28T16:55:23.998Z,15.65
2023-02-28T16:58:28.471Z,16.48
2023-02-28T17:01:33.184Z,15.90
2023-02-28T17:04:37.718Z,18.48
2023-02-28T17:07:43.001Z,15.70
2023-02-28T17:10:46.895Z,19.13
2023-02-28T17:13:51.365Z,19.20
2023-02-28T17:16:55.179Z,20.92
2023-02-28T17:19:59.239Z,23.00
2023-02-28T17:23:03.544Z,18.70
2023-02-28T17:26:07.775Z,16.77
2023-02-28T17:29:20.851Z,19.52
2023-02-28T17:32:25.095Z,16.30
2023-02-28T17:35:29.280Z,23.13
2023-02-28T17:38:33.409Z,22.35
2023-02-28T17:41:37.754Z,20.52
2023-02-28T17:44:41.908Z,22.83
2023-02-28T17:47:48.906Z,20.02
2023-02-28T17:50:52.861Z,18.20
2023-02-28T17:53:57.093Z,20.05
2023-02-28T17:57:01.419Z,21.95
2023-02-28T18:00:09.384Z,20.80
2023-02-28T18:03:14.288Z,22.30
2023-02-28T18:06:50.836Z,22.77
2023-02-28T18:09:54.948Z,25.77
2023-02-28T18:12:59.214Z,21.90
2023-02-28T18:16:03.134Z,20.08
2023-02-28T18:19:08.467Z,19.88
2023-02-28T18:22:12.789Z,20.92
2023-02-28T18:25:17.027Z,21.83
2023-02-28T18:28:21.049Z,25.38
2023-02-28T18:31:25.178Z,30.98
2023-02-28T18:34:30.633Z,20.88
2023-02-28T18:37:34.426Z,22.20
2023-02-28T18:40:39.457Z,22.83
2023-02-28T18:43:44.306Z,29.30
2023-02-28T18:46:50.097Z,22.00
2023-02-28T18:49:54.378Z,27.88
2023-02-28T18:52:59.225Z,22.90
2023-02-28T18:56:05.157Z,26.92
2023-02-28T18:59:11.016Z,23.35
2023-02-28T19:02:15.274Z,20.50
2023-02-28T19:05:19.988Z,36.67
2023-02-28T19:08:25.008Z,27.92
2023-02-28T19:11:29.744Z,28.50
2023-02-28T19:14:33.922Z,26.20
2023-02-28T19:17:38.514Z,22.38
2023-02-28T19:20:42.270Z,22.48
2023-02-28T19:23:46.555Z,22.50
2023-02-28T19:26:50.834Z,24.55
2023-02-28T19:29:58.436Z,25.50
2023-02-28T19:33:02.860Z,24.67
2023-02-28T19:36:08.045Z,25.08
2023-02-28T19:39:12.073Z,27.23
2023-02-28T19:42:20.866Z,22.88
2023-02-28T19:45:25.005Z,26.42
2023-02-28T19:48:30.300Z,31.00
2023-02-28T19:51:35.438Z,30.27
2023-02-28T19:54:39.885Z,30.40
2023-02-28T19:57:45.516Z,29.75
2023-02-28T20:00:50.001Z,33.25
2023-02-28T20:03:54.086Z,30.02
2023-02-28T20:07:00.805Z,29.13
2023-02-28T20:10:05.731Z,30.05
2023-02-28T20:13:10.207Z,29.80
2023-02-28T20:16:15.788Z,27.73
2023-02-28T20:19:20.418Z,28.98
2023-02-28T20:22:24.369Z,29.15
2023-02-28T20:25:28.460Z,32.75
2023-02-28T20:28:33.167Z,36.30
2023-02-28T20:31:40.259Z,32.22
2023-02-28T20:34:44.430Z,36.83
2023-02-28T20:37:48.653Z,37.53
2023-02-28T20:41:01.923Z,32.03
2023-02-28T20:44:06.459Z,35.60
2023-02-28T20:47:10.481Z,37.10
2023-02-28T20:50:14.437Z,36.28
2023-02-28T20:53:19.305Z,38.95
2023-02-28T20:56:23.897Z,37.05
2023-02-28T20:59:28.342Z,33.22
2023-02-28T21:02:32.547Z,31.58
2023-02-28T21:05:36.763Z,30.67
2023-02-28T21:08:41.302Z,29.33
2023-02-28T21:11:46.006Z,33.33
2023-02-28T21:14:49.956Z,32.95
2023-02-28T21:17:54.447Z,29.65
2023-02-28T21:21:10.593Z,29.67
2023-02-28T21:24:17.889Z,32.25
2023-02-28T21:27:21.992Z,32.05
2023-02-28T21:30:26.188Z,29.88
2023-02-28T21:33:30.739Z,31.20
2023-02-28T21:36:41.035Z,31.25
2023-02-28T21:39:45.470Z,31.98
2023-02-28T21:42:49.621Z,26.98
2023-02-28T21:45:53.418Z,31.77
2023-02-28T21:48:58.172Z,28.02
2023-02-28T21:52:02.388Z,34.45
2023-02-28T21:55:06.740Z,32.55
2023-02-28T21:58:14.213Z,37.05
2023-02-28T22:01:22.403Z,32.85
2023-02-28T22:04:26.631Z,32.15
2023-02-28T22:07:30.664Z,31.65
2023-02-28T22:10:35.788Z,26.88
2023-02-28T22:13:40.710Z,35.38
2023-02-28T22:16:51.977Z,30.83
2023-02-28T22:19:57.154Z,31.90
2023-02-28T22:23:01.387Z,29.58
2023-02-28T22:26:08.015Z,30.27
2023-02-28T22:29:12.216Z,31.98
2023-02-28T22:32:16.435Z,29.50
2023-02-28T22:35:20.926Z,28.55
2023-02-28T22:38:27.261Z,32.40
2023-02-28T22:41:31.764Z,29.08
2023-02-28T22:44:36.424Z,27.20
2023-02-28T22:47:40.176Z,30.67
2023-02-28T22:50:44.527Z,30.80
2023-02-28T22:53:50.041Z,27.35
2023-02-28T22:56:54.001Z,34.60
2023-02-28T22:59:57.649Z,32.42
2023-02-28T23:03:02.132Z,31.90
2023-02-28T23:06:20.509Z,33.60
2023-02-28T23:09:24.443Z,29.15
2023-02-28T23:12:29.389Z,29.73
2023-02-28T23:15:33.273Z,32.33
2023-02-28T23:18:37.526Z,32.47
2023-02-28T23:21:43.246Z,29.95
2023-02-28T23:24:47.376Z,27.77
2023-02-28T23:27:51.625Z,28.70
2023-02-28T23:30:55.578Z,29.27
2023-02-28T23:34:00.587Z,29.75
2023-02-28T23:37:04.744Z,32.20
2023-02-28T23:40:11.474Z,30.08
2023-02-28T23:43:15.395Z,30.23
2023-02-28T23:46:21.033Z,32.72
2023-02-28T23:49:25.725Z,29.75
2023-02-28T23:52:30.126Z,29.63
2023-02-28T23:55:34.040Z,27.42
2023-02-28T23:58:38.088Z,26.65
